createdAt,value
2018-08-19T00:00:24.942Z,17.71
2018-08-19T00:03:00.572Z,17.76
2018-08-19T00:05:31.029Z,17.78
2018-08-19T00:08:00.819Z,17.76
2018-08-19T00:11:00.604Z,17.91
2018-08-19T00:13:30.366Z,17.77
2018-08-19T00:16:00.129Z,17.55
2018-08-19T00:18:30.044Z,17.76
2018-08-19T00:20:59.993Z,17.55
2018-08-19T00:23:37.567Z,17.64
2018-08-19T00:26:07.496Z,17.68
2018-08-19T00:28:37.172Z,17.50
2018-08-19T00:31:08.628Z,17.58
2018-08-19T00:33:38.409Z,17.58
2018-08-19T00:36:25.117Z,17.72
2018-08-19T00:38:55.889Z,17.72
2018-08-19T00:41:26.121Z,17.59
2018-08-19T00:43:55.878Z,17.58
2018-08-19T00:46:31.840Z,17.43
2018-08-19T00:49:02.134Z,17.36
2018-08-19T00:51:31.780Z,17.62
2018-08-19T00:54:01.537Z,17.52
2018-08-19T00:56:31.300Z,17.48
2018-08-19T00:59:00.953Z,17.53
2018-08-19T01:01:35.995Z,17.52
2018-08-19T01:04:09.801Z,17.48
2018-08-19T01:06:44.665Z,17.46
2018-08-19T01:09:14.682Z,17.48
2018-08-19T01:11:44.867Z,17.38
2018-08-19T01:14:15.944Z,17.38
2018-08-19T01:16:45.733Z,17.43
2018-08-19T01:19:16.892Z,17.36
2018-08-19T01:21:52.173Z,17.34
2018-08-19T01:24:22.868Z,17.41
2018-08-19T01:26:52.518Z,17.44
2018-08-19T01:29:35.108Z,17.23
2018-08-19T01:32:20.406Z,17.13
2018-08-19T01:34:50.059Z,17.19
2018-08-19T01:37:19.930Z,17.21
2018-08-19T01:39:49.519Z,17.26
2018-08-19T01:42:22.062Z,17.35
2018-08-19T01:44:51.620Z,17.22
2018-08-19T01:47:21.200Z,17.22
2018-08-19T01:49:50.981Z,17.27
2018-08-19T01:52:20.761Z,17.18
2018-08-19T01:54:50.478Z,17.24
2018-08-19T01:57:20.202Z,17.22
2018-08-19T01:59:49.768Z,17.22
2018-08-19T02:02:19.371Z,17.16
2018-08-19T02:04:54.398Z,17.11
2018-08-19T02:07:24.537Z,17.10
2018-08-19T02:10:02.796Z,17.02
2018-08-19T02:12:39.619Z,16.97
2018-08-19T02:15:10.537Z,16.84
2018-08-19T02:17:46.022Z,16.89
2018-08-19T02:20:16.066Z,16.80
2018-08-19T02:22:49.896Z,16.75
2018-08-19T02:25:19.628Z,16.69
2018-08-19T02:27:50.548Z,16.66
2018-08-19T02:30:20.396Z,16.79
2018-08-19T02:32:51.119Z,16.74
2018-08-19T02:35:21.040Z,16.67
2018-08-19T02:37:50.868Z,16.60
2018-08-19T02:40:25.821Z,16.59
2018-08-19T02:42:55.645Z,16.55
2018-08-19T02:45:25.712Z,16.51
2018-08-19T02:47:55.704Z,16.51
2018-08-19T02:50:25.295Z,16.48
2018-08-19T02:52:54.959Z,16.49
2018-08-19T02:55:26.414Z,16.48
2018-08-19T02:58:01.164Z,16.45
2018-08-19T03:00:30.760Z,16.42
2018-08-19T03:03:00.382Z,16.47
2018-08-19T03:05:29.960Z,16.47
2018-08-19T03:07:59.526Z,16.41
2018-08-19T03:10:29.381Z,16.40
2018-08-19T03:12:59.110Z,16.41
2018-08-19T03:15:28.661Z,16.35
2018-08-19T03:17:58.304Z,16.30
2018-08-19T03:20:28.164Z,16.28
2018-08-19T03:22:57.893Z,16.21
2018-08-19T03:25:28.089Z,16.29
2018-08-19T03:27:57.994Z,16.44
2018-08-19T03:30:27.888Z,16.35
2018-08-19T03:33:00.546Z,16.40
2018-08-19T03:35:30.287Z,16.32
2018-08-19T03:38:04.673Z,16.34
2018-08-19T03:40:34.162Z,16.35
2018-08-19T03:43:04.107Z,16.34
2018-08-19T03:45:33.808Z,16.46
2018-08-19T03:48:03.456Z,16.40
2018-08-19T03:50:36.667Z,16.34
2018-08-19T03:53:06.890Z,16.33
2018-08-19T03:55:39.303Z,16.38
2018-08-19T03:58:10.515Z,16.21
2018-08-19T04:00:43.841Z,16.33
2018-08-19T04:03:22.064Z,16.14
2018-08-19T04:05:57.304Z,16.16
2018-08-19T04:08:33.757Z,16.32
2018-08-19T04:11:07.441Z,16.49
2018-08-19T04:13:39.629Z,16.52
2018-08-19T04:16:11.168Z,16.53
2018-08-19T04:18:43.193Z,16.53
2018-08-19T04:21:17.668Z,16.51
2018-08-19T04:23:49.688Z,16.55
2018-08-19T04:26:19.707Z,16.57
2018-08-19T04:28:49.296Z,16.59
2018-08-19T04:31:24.265Z,16.61
2018-08-19T04:33:55.019Z,16.56
2018-08-19T04:36:25.325Z,16.50
2018-08-19T04:38:55.412Z,16.34
2018-08-19T04:41:25.092Z,16.33
2018-08-19T04:43:56.044Z,16.42
2018-08-19T04:46:25.757Z,16.52
2018-08-19T04:48:55.615Z,16.61
2018-08-19T04:51:26.459Z,16.76
2018-08-19T04:53:56.231Z,16.80
2018-08-19T04:56:25.943Z,16.95
2018-08-19T04:58:55.826Z,17.17
2018-08-19T05:01:25.444Z,17.36
2018-08-19T05:03:55.499Z,18.09
2018-08-19T05:06:25.839Z,17.79
2018-08-19T05:08:55.624Z,18.92
2018-08-19T05:11:25.299Z,19.47
2018-08-19T05:13:55.211Z,20.08
2018-08-19T05:16:24.950Z,20.42
2018-08-19T05:18:59.613Z,18.70
2018-08-19T05:21:29.394Z,19.04
2018-08-19T05:23:59.190Z,19.26
2018-08-19T05:26:28.923Z,19.41
2018-08-19T05:29:10.768Z,20.43
2018-08-19T05:31:45.271Z,21.73
2018-08-19T05:34:45.784Z,20.21
2018-08-19T05:37:15.489Z,20.49
2018-08-19T05:39:51.231Z,21.45
2018-08-19T05:42:20.892Z,22.23
2018-08-19T05:44:50.549Z,23.01
2018-08-19T05:47:20.331Z,22.77
2018-08-19T05:49:51.334Z,21.96
2018-08-19T05:52:22.352Z,23.75
2018-08-19T05:54:58.226Z,24.77
2018-08-19T05:57:29.780Z,25.22
2018-08-19T06:00:01.007Z,25.39
2018-08-19T06:02:35.945Z,23.88
2018-08-19T06:05:05.882Z,25.63
2018-08-19T06:07:35.838Z,23.54
2018-08-19T06:10:06.251Z,25.36
2018-08-19T06:12:36.048Z,24.95
2018-08-19T06:15:06.547Z,24.48
2018-08-19T06:17:36.296Z,25.14
2018-08-19T06:20:06.498Z,24.64
2018-08-19T06:22:40.821Z,23.31
2018-08-19T06:25:11.857Z,24.17
2018-08-19T06:27:46.515Z,24.64
2018-08-19T06:30:17.045Z,22.89
2018-08-19T06:32:46.974Z,26.33
2018-08-19T06:35:16.768Z,26.87
2018-08-19T06:37:46.488Z,26.79
2018-08-19T06:40:20.904Z,23.63
2018-08-19T06:42:50.563Z,28.11
2018-08-19T06:45:20.392Z,25.29
2018-08-19T06:47:50.116Z,24.46
2018-08-19T06:50:33.627Z,23.92
2018-08-19T06:53:03.386Z,26.06
2018-08-19T06:55:33.100Z,24.89
2018-08-19T06:58:02.893Z,25.68
2018-08-19T07:00:33.265Z,24.35
2018-08-19T07:03:05.780Z,26.18
2018-08-19T07:05:35.656Z,25.37
2018-08-19T07:08:05.374Z,23.86
2018-08-19T07:10:40.197Z,24.40
2018-08-19T07:13:13.007Z,24.12
2018-08-19T07:15:43.852Z,24.87
2018-08-19T07:18:15.280Z,26.63
2018-08-19T07:20:45.563Z,24.86
2018-08-19T07:23:15.273Z,25.12
2018-08-19T07:25:45.828Z,24.23
2018-08-19T07:28:17.366Z,24.54
2018-08-19T07:30:47.394Z,26.48
2018-08-19T07:33:17.003Z,24.64
2018-08-19T07:35:46.647Z,25.71
2018-08-19T07:38:16.989Z,24.23
2018-08-19T07:40:46.714Z,25.30
2018-08-19T07:43:16.357Z,23.95
2018-08-19T07:45:45.984Z,24.20
2018-08-19T07:48:15.779Z,22.17
2018-08-19T07:50:45.473Z,22.58
2018-08-19T07:53:21.815Z,21.24
2018-08-19T07:55:51.432Z,21.54
2018-08-19T07:58:42.704Z,21.56
2018-08-19T08:01:12.465Z,21.36
2018-08-19T08:03:42.116Z,21.73
2018-08-19T08:06:11.831Z,22.17
2018-08-19T08:08:41.580Z,21.80
2018-08-19T08:11:11.491Z,21.96
2018-08-19T08:13:41.445Z,21.81
2018-08-19T08:16:11.252Z,22.13
2018-08-19T08:18:40.885Z,21.64
2018-08-19T08:21:13.668Z,21.46
2018-08-19T08:23:43.647Z,21.22
2018-08-19T08:26:13.400Z,21.81
2018-08-19T08:28:52.647Z,21.76
2018-08-19T08:31:22.348Z,22.22
2018-08-19T08:33:52.110Z,21.55
2018-08-19T08:36:21.756Z,21.84
2018-08-19T08:38:51.491Z,22.25
2018-08-19T08:41:21.157Z,21.79
2018-08-19T08:43:50.825Z,22.06
2018-08-19T08:46:20.479Z,22.41
2018-08-19T08:48:50.180Z,22.03
2018-08-19T08:51:19.990Z,22.24
2018-08-19T08:53:49.660Z,22.51
2018-08-19T08:56:19.398Z,21.91
2018-08-19T08:58:48.996Z,22.51
2018-08-19T09:01:18.658Z,22.02
2018-08-19T09:03:48.258Z,22.50
2018-08-19T09:06:23.186Z,22.38
2018-08-19T09:08:52.822Z,22.74
2018-08-19T09:11:22.401Z,22.36
2018-08-19T09:13:52.212Z,23.00
2018-08-19T09:16:22.003Z,22.80
2018-08-19T09:18:51.786Z,23.03
2018-08-19T09:21:21.453Z,22.85
2018-08-19T09:23:51.296Z,22.49
2018-08-19T09:26:21.005Z,23.21
2018-08-19T09:28:50.647Z,23.12
2018-08-19T09:31:20.327Z,22.80
2018-08-19T09:33:49.940Z,22.74
2018-08-19T09:36:19.662Z,22.62
2018-08-19T09:38:49.331Z,23.33
2018-08-19T09:41:18.942Z,23.11
2018-08-19T09:43:48.581Z,23.54
2018-08-19T09:46:18.256Z,23.18
2018-08-19T09:48:47.919Z,23.87
2018-08-19T09:51:17.493Z,23.59
2018-08-19T09:53:47.303Z,23.67
2018-08-19T09:56:20.537Z,23.62
2018-08-19T09:58:55.423Z,23.75
2018-08-19T10:01:45.165Z,23.45
2018-08-19T10:04:22.855Z,23.89
2018-08-19T10:07:02.622Z,23.25
2018-08-19T10:09:32.172Z,23.41
2018-08-19T10:12:02.091Z,23.94
2018-08-19T10:14:31.777Z,24.25
2018-08-19T10:17:01.643Z,25.01
2018-08-19T10:19:38.090Z,24.36
2018-08-19T10:22:07.757Z,24.30
2018-08-19T10:24:37.503Z,23.98
2018-08-19T10:27:09.528Z,23.81
2018-08-19T10:29:39.540Z,25.51
2018-08-19T10:32:09.562Z,25.26
2018-08-19T10:34:39.536Z,25.32
2018-08-19T10:37:09.458Z,25.27
2018-08-19T10:39:39.179Z,25.39
2018-08-19T10:42:21.967Z,25.07
2018-08-19T10:44:52.934Z,26.00
2018-08-19T10:47:22.733Z,25.98
2018-08-19T10:50:10.303Z,25.67
2018-08-19T10:52:42.033Z,23.79
2018-08-19T10:55:13.312Z,25.30
2018-08-19T10:57:43.328Z,24.97
2018-08-19T11:00:15.978Z,24.61
2018-08-19T11:02:45.568Z,25.78
2018-08-19T11:05:15.626Z,25.15
2018-08-19T11:07:45.299Z,25.81
2018-08-19T11:10:26.817Z,25.01
2018-08-19T11:12:58.269Z,24.89
2018-08-19T11:15:45.486Z,25.23
2018-08-19T11:18:36.285Z,24.52
2018-08-19T11:21:09.851Z,24.45
2018-08-19T11:23:41.744Z,25.10
2018-08-19T11:26:12.443Z,24.67
2018-08-19T11:28:46.028Z,24.66
2018-08-19T11:31:28.180Z,24.93
2018-08-19T11:34:01.853Z,24.62
2018-08-19T11:36:37.857Z,24.39
2018-08-19T11:39:09.616Z,24.61
2018-08-19T11:41:39.360Z,24.53
2018-08-19T11:44:15.581Z,24.66
2018-08-19T11:46:45.290Z,24.61
2018-08-19T11:49:17.904Z,24.12
2018-08-19T11:51:49.731Z,25.08
2018-08-19T11:54:20.335Z,24.85
2018-08-19T11:56:58.879Z,25.03
2018-08-19T11:59:33.990Z,25.14
2018-08-19T12:02:04.120Z,25.26
2018-08-19T12:04:33.929Z,25.45
2018-08-19T12:07:03.757Z,24.67
2018-08-19T12:09:33.556Z,24.84
2018-08-19T12:12:03.663Z,24.58
2018-08-19T12:14:36.231Z,25.12
2018-08-19T12:17:13.286Z,25.36
2018-08-19T12:19:44.482Z,25.37
2018-08-19T12:22:14.203Z,25.47
2018-08-19T12:24:46.725Z,25.18
2018-08-19T12:27:19.830Z,25.18
2018-08-19T12:29:49.599Z,25.60
2018-08-19T12:32:27.882Z,25.27
2018-08-19T12:35:01.594Z,25.17
2018-08-19T12:37:32.576Z,25.28
2018-08-19T12:40:02.318Z,24.89
2018-08-19T12:42:37.545Z,25.57
2018-08-19T12:45:08.409Z,26.12
2018-08-19T12:47:38.256Z,25.99
2018-08-19T12:50:13.577Z,25.98
2018-08-19T12:52:43.405Z,25.92
2018-08-19T12:55:16.507Z,25.93
2018-08-19T12:57:47.952Z,26.01
2018-08-19T13:00:23.909Z,25.70
2018-08-19T13:02:53.836Z,25.92
2018-08-19T13:05:23.880Z,25.51
2018-08-19T13:07:53.674Z,25.61
2018-08-19T13:10:23.832Z,25.73
2018-08-19T13:12:59.516Z,26.16
2018-08-19T13:15:30.917Z,25.69
2018-08-19T13:18:00.850Z,25.36
2018-08-19T13:20:30.587Z,26.11
2018-08-19T13:23:02.504Z,26.25
2018-08-19T13:25:32.584Z,26.24
2018-08-19T13:28:02.527Z,26.32
2018-08-19T13:30:32.472Z,26.36
2018-08-19T13:33:02.251Z,26.10
2018-08-19T13:35:32.129Z,26.24
2018-08-19T13:38:01.777Z,26.35
2018-08-19T13:40:38.245Z,26.40
2018-08-19T13:43:07.922Z,26.08
2018-08-19T13:45:37.696Z,25.79
2018-08-19T13:48:07.338Z,26.16
2018-08-19T13:50:37.120Z,25.75
2018-08-19T13:53:06.890Z,25.45
2018-08-19T13:55:37.220Z,25.97
2018-08-19T13:58:06.874Z,26.09
2018-08-19T14:00:36.915Z,26.02
2018-08-19T14:03:06.754Z,25.92
2018-08-19T14:05:36.878Z,26.27
2018-08-19T14:08:06.799Z,26.11
2018-08-19T14:10:36.840Z,26.48
2018-08-19T14:13:06.666Z,26.15
2018-08-19T14:15:36.580Z,26.36
2018-08-19T14:18:06.991Z,26.45
2018-08-19T14:20:37.129Z,26.36
2018-08-19T14:23:06.773Z,26.32
2018-08-19T14:25:36.811Z,25.91
2018-08-19T14:28:06.741Z,26.23
2018-08-19T14:30:37.365Z,26.35
2018-08-19T14:33:07.622Z,25.92
2018-08-19T14:35:38.804Z,26.28
2018-08-19T14:38:08.835Z,26.10
2018-08-19T14:40:39.247Z,26.36
2018-08-19T14:43:08.908Z,26.55
2018-08-19T14:45:39.482Z,26.16
2018-08-19T14:48:09.644Z,25.65
2018-08-19T14:50:42.308Z,25.92
2018-08-19T14:53:12.121Z,25.89
2018-08-19T14:55:42.288Z,25.89
2018-08-19T14:58:12.160Z,25.77
2018-08-19T15:00:42.966Z,26.23
2018-08-19T15:03:12.685Z,26.18
2018-08-19T15:05:48.356Z,26.06
2018-08-19T15:08:19.574Z,26.32
2018-08-19T15:10:53.573Z,26.15
2018-08-19T15:13:23.536Z,26.45
2018-08-19T15:15:53.433Z,26.37
2018-08-19T15:18:23.085Z,25.67
2018-08-19T15:20:52.794Z,25.98
2018-08-19T15:23:22.720Z,26.10
2018-08-19T15:25:52.423Z,26.19
2018-08-19T15:28:22.099Z,26.54
2018-08-19T15:30:51.816Z,25.97
2018-08-19T15:33:22.784Z,26.12
2018-08-19T15:35:52.423Z,26.04
2018-08-19T15:38:22.117Z,26.13
2018-08-19T15:40:51.816Z,26.26
2018-08-19T15:43:21.385Z,26.37
2018-08-19T15:45:50.997Z,26.27
2018-08-19T15:48:20.896Z,26.25
2018-08-19T15:50:57.436Z,26.04
2018-08-19T15:53:27.264Z,26.22
2018-08-19T15:55:57.044Z,26.09
2018-08-19T15:58:28.749Z,26.27
2018-08-19T16:00:58.386Z,26.10
2018-08-19T16:03:28.019Z,26.08
2018-08-19T16:05:58.375Z,26.11
2018-08-19T16:08:28.037Z,25.95
2018-08-19T16:10:57.599Z,25.89
2018-08-19T16:13:27.386Z,26.07
2018-08-19T16:15:57.016Z,25.88
2018-08-19T16:18:26.653Z,25.78
2018-08-19T16:21:01.518Z,25.87
2018-08-19T16:23:31.329Z,25.65
2018-08-19T16:26:01.215Z,25.61
2018-08-19T16:28:30.866Z,25.77
2018-08-19T16:31:00.509Z,25.48
2018-08-19T16:33:30.495Z,25.66
2018-08-19T16:36:00.143Z,25.97
2018-08-19T16:38:29.731Z,25.51
2018-08-19T16:40:59.448Z,25.43
2018-08-19T16:43:29.067Z,25.59
2018-08-19T16:45:58.760Z,25.48
2018-08-19T16:48:28.565Z,25.47
2018-08-19T16:50:58.291Z,25.45
2018-08-19T16:53:28.030Z,25.60
2018-08-19T16:55:57.855Z,25.50
2018-08-19T16:58:27.616Z,25.30
2018-08-19T17:00:57.313Z,25.46
2018-08-19T17:03:37.715Z,25.32
2018-08-19T17:06:14.522Z,25.31
2018-08-19T17:08:44.508Z,25.36
2018-08-19T17:11:15.511Z,25.23
2018-08-19T17:13:45.426Z,25.27
2018-08-19T17:16:15.062Z,25.11
2018-08-19T17:18:44.691Z,25.07
2018-08-19T17:21:14.567Z,25.02
2018-08-19T17:23:48.360Z,24.98
2018-08-19T17:26:21.160Z,24.91
2018-08-19T17:28:51.515Z,24.99
2018-08-19T17:31:21.559Z,24.94
2018-08-19T17:33:51.546Z,24.94
2018-08-19T17:46:16.511Z,24.82
2018-08-19T17:48:46.331Z,24.61
2018-08-19T17:51:31.965Z,24.49
2018-08-19T17:54:01.896Z,24.50
2018-08-19T17:56:31.595Z,24.36
2018-08-19T17:59:01.812Z,24.27
2018-08-19T18:01:31.582Z,24.20
2018-08-19T18:04:01.359Z,24.22
2018-08-19T18:06:30.998Z,24.34
2018-08-19T18:09:00.812Z,24.16
2018-08-19T18:11:30.496Z,24.06
2018-08-19T18:14:00.420Z,24.03
2018-08-19T18:16:30.271Z,23.89
2018-08-19T18:19:01.470Z,23.85
2018-08-19T18:21:35.767Z,23.84
2018-08-19T18:24:07.397Z,23.70
2018-08-19T18:26:37.240Z,23.69
2018-08-19T18:29:06.921Z,23.66
2018-08-19T18:31:37.142Z,23.54
2018-08-19T18:34:10.011Z,23.46
2018-08-19T18:36:40.115Z,23.36
2018-08-19T18:39:12.132Z,23.35
2018-08-19T18:41:46.597Z,23.32
2018-08-19T18:44:16.510Z,23.30
2018-08-19T18:46:46.396Z,23.22
2018-08-19T18:49:16.263Z,23.23
2018-08-19T18:51:48.176Z,23.11
2018-08-19T18:54:25.075Z,23.01
2018-08-19T18:56:54.741Z,22.95
2018-08-19T18:59:24.369Z,22.99
2018-08-19T19:01:59.111Z,22.96
2018-08-19T19:04:29.111Z,22.87
2018-08-19T19:06:59.241Z,22.73
2018-08-19T19:09:42.145Z,22.64
2018-08-19T19:12:12.379Z,22.67
2018-08-19T19:14:42.321Z,22.70
2018-08-19T19:17:12.493Z,22.68
2018-08-19T19:19:47.967Z,22.71
2018-08-19T19:22:17.866Z,22.45
2018-08-19T19:24:48.160Z,22.36
2018-08-19T19:27:18.194Z,22.28
2018-08-19T19:29:52.313Z,22.36
2018-08-19T19:32:25.664Z,22.17
2018-08-19T19:34:55.372Z,22.30
2018-08-19T19:37:25.323Z,22.12
2018-08-19T19:40:00.293Z,22.20
2018-08-19T19:42:30.068Z,22.05
2018-08-19T19:45:00.446Z,22.03
2018-08-19T19:47:30.202Z,21.93
2018-08-19T19:50:00.480Z,22.06
2018-08-19T19:52:30.468Z,22.00
2018-08-19T19:55:00.356Z,21.82
2018-08-19T19:57:30.150Z,21.81
2018-08-19T19:59:59.928Z,21.62
2018-08-19T20:02:31.594Z,21.71
2018-08-19T20:05:09.073Z,21.79
2018-08-19T20:07:38.847Z,21.75
2018-08-19T20:10:13.205Z,21.54
2018-08-19T20:12:43.041Z,21.36
2018-08-19T20:15:12.740Z,21.71
2018-08-19T20:17:42.423Z,21.63
2018-08-19T20:20:12.100Z,21.61
2018-08-19T20:22:42.025Z,21.62
2018-08-19T20:25:11.693Z,21.66
2018-08-19T20:27:41.897Z,21.62
2018-08-19T20:30:11.964Z,21.65
2018-08-19T20:32:41.774Z,21.48
2018-08-19T20:35:11.656Z,21.51
2018-08-19T20:37:41.484Z,21.53
2018-08-19T20:40:11.406Z,21.51
2018-08-19T20:42:41.080Z,21.49
2018-08-19T20:45:10.847Z,21.39
2018-08-19T20:47:41.375Z,21.27
2018-08-19T20:50:11.076Z,21.54
2018-08-19T20:52:45.723Z,21.45
2018-08-19T20:55:16.036Z,21.35
2018-08-19T20:57:46.662Z,21.12
2018-08-19T21:00:16.600Z,20.99
2018-08-19T21:02:46.362Z,20.87
2018-08-19T21:05:16.101Z,20.76
2018-08-19T21:07:45.936Z,20.65
2018-08-19T21:10:15.733Z,20.62
2018-08-19T21:12:45.511Z,20.73
2018-08-19T21:15:22.480Z,20.70
2018-08-19T21:17:52.398Z,20.61
2018-08-19T21:20:22.273Z,20.55
2018-08-19T21:22:53.348Z,20.40
2018-08-19T21:25:23.047Z,20.35
2018-08-19T21:27:53.003Z,20.31
2018-08-19T21:30:23.424Z,20.23
2018-08-19T21:32:53.906Z,20.20
2018-08-19T21:35:24.108Z,20.16
2018-08-19T21:37:53.725Z,20.22
2018-08-19T21:42:58.668Z,20.05
2018-08-19T21:45:28.285Z,20.09
2018-08-19T21:47:57.921Z,20.16
2018-08-19T21:50:27.550Z,20.06
2018-08-19T21:53:02.232Z,19.94
2018-08-19T21:55:34.080Z,19.86
2018-08-19T21:58:04.198Z,19.88
2018-08-19T22:00:42.013Z,19.90
2018-08-19T22:03:22.007Z,19.93
2018-08-19T22:05:53.072Z,19.81
2018-08-19T22:08:24.273Z,19.74
2018-08-19T22:10:54.131Z,19.76
2018-08-19T22:13:23.782Z,19.83
2018-08-19T22:15:53.472Z,19.84
2018-08-19T22:18:24.015Z,19.85
2018-08-19T22:21:09.332Z,19.77
2018-08-19T22:23:48.630Z,19.83
2018-08-19T22:26:19.332Z,19.65
2018-08-19T22:29:08.461Z,19.62
2018-08-19T22:31:38.042Z,19.57
2018-08-19T22:34:07.760Z,19.65
2018-08-19T22:36:37.448Z,19.93
2018-08-19T22:41:38.718Z,20.07
2018-08-19T22:44:08.371Z,20.43
2018-08-19T22:46:38.000Z,20.54
2018-08-19T22:49:07.579Z,20.59
2018-08-19T22:51:37.209Z,20.60
2018-08-19T22:54:06.934Z,20.60
2018-08-19T22:56:36.499Z,20.73
2018-08-19T22:59:06.215Z,20.65
2018-08-19T23:01:40.958Z,20.60
2018-08-19T23:04:10.588Z,20.68
2018-08-19T23:06:40.223Z,20.64
2018-08-19T23:09:09.957Z,20.63
2018-08-19T23:11:44.719Z,20.65
2018-08-19T23:14:31.090Z,20.60
2018-08-19T23:17:00.784Z,20.70
2018-08-19T23:19:30.388Z,20.58
2018-08-19T23:22:00.074Z,20.61
2018-08-19T23:24:29.712Z,20.66
2018-08-19T23:26:59.476Z,20.58
2018-08-19T23:29:29.120Z,20.53
2018-08-19T23:31:58.742Z,20.51
2018-08-19T23:34:28.436Z,20.56
2018-08-19T23:36:58.282Z,20.57
2018-08-19T23:39:27.874Z,20.44
2018-08-19T23:41:57.524Z,20.49
2018-08-19T23:44:27.194Z,20.32
2018-08-19T23:46:56.824Z,20.38
2018-08-19T23:49:26.442Z,20.41
2018-08-19T23:51:56.087Z,20.36
2018-08-19T23:54:25.722Z,20.27
2018-08-19T23:56:55.369Z,20.30
2018-08-19T23:59:31.927Z,20.32
